Time;durP1;ratioP1;P1;durP2;ratioP2;P2;SDS_P1;SDS_P2;PMS_P1;PMS_P2;Temp;Humidity;BMP_temperature;BMP_pressure;BME280_temperature;BME280_humidity;BME280_pressure;Samples;Min_cycle;Max_cycle;Signal;HPM_P1;HPM_P2
2022/07/04 00:01:43;;;;;;;21.15;15.18;;;22.90;99.90;;;;;;4636049;30;20103;-85
2022/07/04 00:04:09;;;;;;;22.83;13.88;;;23.00;99.90;;;;;;4651305;30;20058;-85
2022/07/04 00:06:35;;;;;;;23.58;14.40;;;23.10;99.90;;;;;;4649962;30;20328;-84
2022/07/04 00:09:01;;;;;;;24.73;16.50;;;23.10;99.90;;;;;;4651327;30;20027;-84
2022/07/04 00:11:26;;;;;;;22.95;16.20;;;23.00;99.90;;;;;;4649788;30;20147;-84
2022/07/04 00:13:52;;;;;;;24.65;15.98;;;;;;;;;;4651245;30;20655;-84
2022/07/04 00:16:18;;;;;;;26.50;16.60;;;23.10;99.90;;;;;;4649840;30;20034;-84
2022/07/04 00:18:44;;;;;;;22.50;15.77;;;23.00;99.90;;;;;;4651138;30;20037;-84
2022/07/04 00:21:10;;;;;;;23.98;15.70;;;22.90;99.90;;;;;;4635662;30;20229;-85
2022/07/04 00:23:35;;;;;;;26.02;16.50;;;22.90;99.90;;;;;;4635618;30;20027;-85
2022/07/04 00:26:01;;;;;;;19.52;14.73;;;23.00;99.90;;;;;;4635638;30;20522;-84
2022/07/04 00:28:27;;;;;;;24.73;15.50;;;23.00;99.90;;;;;;4650296;30;20518;-84
2022/07/04 00:30:53;;;;;;;22.85;13.75;;;23.00;99.90;;;;;;4649755;30;20139;-83
2022/07/04 00:33:34;;;;;;;25.23;15.80;;;23.00;99.90;;;;;;4650753;30;20063;-87
2022/07/04 00:36:00;;;;;;;20.75;13.88;;;;;;;;;;4648763;30;20503;-82
2022/07/04 00:38:26;;;;;;;23.38;16.05;;;23.00;99.90;;;;;;4650823;30;20050;-83
2022/07/04 00:40:52;;;;;;;20.92;14.32;;;23.00;99.90;;;;;;4635181;30;20069;-85
2022/07/04 00:43:26;;;;;;;20.27;14.48;;;23.00;99.90;;;;;;4635196;30;20073;-82
2022/07/04 00:45:55;;;;;;;26.30;16.05;;;23.00;99.90;;;;;;4650595;30;20041;-85
2022/07/04 00:48:21;;;;;;;24.75;17.45;;;;;;;;;;4650410;30;20030;-83
2022/07/04 00:50:48;;;;;;;19.85;13.75;;;22.90;99.90;;;;;;4650488;30;20053;-83
2022/07/04 00:53:23;;;;;;;23.30;15.75;;;23.10;99.90;;;;;;4634915;30;20439;-83
2022/07/04 00:55:54;;;;;;;25.42;14.20;;;23.00;99.90;;;;;;4650346;30;20124;-85
2022/07/04 00:58:23;;;;;;;22.50;14.68;;;23.00;99.90;;;;;;4650380;30;20058;-85
2022/07/04 01:00:50;;;;;;;19.73;13.13;;;23.10;99.90;;;;;;4650262;30;20408;-84
2022/07/04 01:03:16;;;;;;;22.48;13.38;;;23.10;99.90;;;;;;4645901;30;20051;-83
2022/07/04 01:05:43;;;;;;;23.98;15.18;;;23.10;99.90;;;;;;4632233;30;20042;-84
2022/07/04 01:08:09;;;;;;;22.27;14.48;;;23.00;99.90;;;;;;4633964;30;20144;-83
2022/07/04 01:10:36;;;;;;;21.55;14.98;;;;;;;;;;4633368;30;20046;-84
2022/07/04 01:13:04;;;;;;;22.38;14.70;;;22.90;99.90;;;;;;4631896;30;20035;-85
2022/07/04 01:15:30;;;;;;;21.23;14.32;;;22.90;99.90;;;;;;4633247;30;20043;-85
2022/07/04 01:17:56;;;;;;;29.60;17.20;;;22.90;99.90;;;;;;4631727;30;20038;-84
2022/07/04 01:20:22;;;;;;;19.85;14.20;;;22.80;99.90;;;;;;4633442;30;20035;-84
2022/07/04 01:22:51;;;;;;;23.35;13.70;;;22.80;99.90;;;;;;4633185;30;20197;-85
2022/07/04 01:25:17;;;;;;;21.25;14.18;;;22.80;99.90;;;;;;4633082;30;20540;-83
2022/07/04 01:27:42;;;;;;;24.92;15.90;;;22.80;99.90;;;;;;4631897;30;20042;-83
2022/07/04 01:30:09;;;;;;;21.75;14.82;;;22.90;99.90;;;;;;4631909;30;20717;-85
2022/07/04 01:32:35;;;;;;;20.85;14.25;;;22.90;99.90;;;;;;4632987;30;20055;-84
2022/07/04 01:35:01;;;;;;;21.55;15.45;;;;;;;;;;4645856;30;20313;-85
2022/07/04 01:37:27;;;;;;;20.13;14.93;;;22.90;99.90;;;;;;4632018;30;20536;-84
2022/07/04 01:39:52;;;;;;;21.05;14.52;;;22.90;99.90;;;;;;4645761;30;20065;-84
2022/07/04 01:42:18;;;;;;;22.63;15.25;;;22.80;99.90;;;;;;4633002;30;20637;-83
2022/07/04 01:44:50;;;;;;;24.42;15.27;;;20.50;99.90;;;;;;4633340;30;20035;-85
2022/07/04 01:47:15;;;;;;;19.88;14.55;;;20.90;99.90;;;;;;4645745;30;20106;-84
2022/07/04 01:49:41;;;;;;;22.23;15.35;;;22.80;99.90;;;;;;4633273;30;20035;-85
2022/07/04 01:52:07;;;;;;;20.77;15.32;;;22.90;99.90;;;;;;4634150;30;20411;-83
2022/07/04 01:54:33;;;;;;;24.73;17.38;;;22.90;99.90;;;;;;4647372;30;20081;-83
2022/07/04 01:57:01;;;;;;;24.10;15.00;;;22.90;99.90;;;;;;4634621;30;20036;-85
2022/07/04 02:02:14;;;;;;;25.10;16.52;;;22.90;99.90;;;;;;4634385;30;20427;-84
2022/07/04 02:04:40;;;;;;;20.00;14.65;;;22.80;99.90;;;;;;4648156;30;20054;-82
2022/07/04 02:07:12;;;;;;;20.58;13.65;;;22.80;99.90;;;;;;4648668;30;20389;-85
2022/07/04 02:09:41;;;;;;;18.88;12.05;;;22.80;99.90;;;;;;4649965;30;20280;-85
2022/07/04 02:14:51;;;;;;;22.17;14.45;;;22.80;99.90;;;;;;4650572;30;20180;-83
2022/07/04 02:17:17;;;;;;;19.85;12.82;;;22.80;99.90;;;;;;4658507;25;20339;-84
2022/07/04 02:19:43;;;;;;;20.00;12.15;;;;;;;;;;4683727;30;20522;-85
2022/07/04 02:22:09;;;;;;;21.73;12.48;;;22.70;99.90;;;;;;4684405;30;20446;-84
2022/07/04 02:24:35;;;;;;;19.45;12.68;;;22.70;99.90;;;;;;4667135;30;20042;-84
2022/07/04 02:27:01;;;;;;;18.30;12.02;;;22.70;99.90;;;;;;4668084;30;20686;-83
2022/07/04 02:29:28;;;;;;;17.05;12.07;;;;;;;;;;4668062;30;20065;-85
2022/07/04 02:31:56;;;;;;;22.60;12.52;;;22.70;99.90;;;;;;4667675;30;20333;-84
2022/07/04 02:34:22;;;;;;;21.80;15.60;;;22.70;99.90;;;;;;4683914;30;20022;-83
2022/07/04 02:36:47;;;;;;;34.90;22.60;;;22.60;99.90;;;;;;4683622;30;20065;-84
2022/07/04 02:39:13;;;;;;;20.52;14.38;;;22.50;99.90;;;;;;4667885;30;20038;-84
2022/07/04 02:41:39;;;;;;;19.33;14.63;;;22.30;99.90;;;;;;4683576;30;20037;-81
2022/07/04 02:44:05;;;;;;;17.88;11.35;;;22.80;99.90;;;;;;4667423;30;20541;-85
2022/07/04 02:46:32;;;;;;;18.88;12.35;;;22.20;99.90;;;;;;4668102;30;20064;-84
2022/07/04 02:48:58;;;;;;;19.40;12.02;;;;;;;;;;4667979;30;20135;-84
2022/07/04 02:51:24;;;;;;;15.82;10.55;;;22.20;99.90;;;;;;4669192;30;20498;-83
2022/07/04 02:53:50;;;;;;;21.05;11.75;;;22.20;99.90;;;;;;4671050;30;20258;-83
2022/07/04 02:56:16;;;;;;;18.73;12.07;;;22.10;99.90;;;;;;4687016;30;20588;-83
2022/07/04 02:58:42;;;;;;;16.45;11.52;;;22.20;99.90;;;;;;4686907;30;20364;-85
2022/07/04 03:01:08;;;;;;;21.35;13.07;;;22.20;99.90;;;;;;4671257;30;20420;-82
2022/07/04 03:03:34;;;;;;;17.30;11.48;;;22.00;99.90;;;;;;4687063;30;20087;-84
2022/07/04 03:06:00;;;;;;;18.55;10.40;;;;;;;;;;4687135;30;20041;-84
2022/07/04 03:08:26;;;;;;;16.52;11.75;;;21.90;99.90;;;;;;4671392;30;20034;-84
2022/07/04 03:10:55;;;;;;;15.70;10.85;;;21.80;99.90;;;;;;4687355;30;20033;-87
2022/07/04 03:13:21;;;;;;;17.55;12.07;;;21.80;99.90;;;;;;4686993;30;20597;-83
2022/07/04 03:15:47;;;;;;;17.30;11.88;;;21.90;99.90;;;;;;4671059;30;20427;-85
2022/07/04 03:18:13;;;;;;;18.58;11.95;;;21.90;99.90;;;;;;4654833;30;20542;-84
2022/07/04 03:20:38;;;;;;;17.73;11.38;;;21.90;99.90;;;;;;4653482;30;20038;-84
2022/07/04 03:23:04;;;;;;;16.63;11.32;;;21.90;99.90;;;;;;4653825;30;20026;-83
2022/07/04 03:25:40;;;;;;;15.88;9.93;;;21.80;99.90;;;;;;4669390;30;20041;-83
2022/07/04 03:28:06;;;;;;;17.23;10.32;;;21.70;99.90;;;;;;4653539;30;20030;-84
2022/07/04 03:30:32;;;;;;;16.13;10.20;;;21.70;99.90;;;;;;4653394;30;20045;-84
2022/07/04 03:32:58;;;;;;;15.93;9.88;;;21.60;99.90;;;;;;4653306;30;20313;-83
2022/07/04 03:35:24;;;;;;;15.65;10.20;;;21.60;99.90;;;;;;4653152;30;20045;-84
2022/07/04 03:37:51;;;;;;;15.50;10.68;;;;;;;;;;4668926;30;20030;-85
2022/07/04 03:40:17;;;;;;;19.45;11.25;;;;;;;;;;4669291;30;20076;-84
2022/07/04 03:42:43;;;;;;;17.73;11.32;;;21.70;99.90;;;;;;4667401;30;20116;-85
2022/07/04 03:45:12;;;;;;;17.48;11.60;;;22.80;99.90;;;;;;4653489;30;20399;-84
2022/07/04 03:47:38;;;;;;;15.90;10.45;;;21.80;99.90;;;;;;4653265;30;20125;-84
2022/07/04 03:50:04;;;;;;;18.23;11.55;;;21.80;99.90;;;;;;4667405;30;20153;-83
2022/07/04 03:52:30;;;;;;;15.65;10.40;;;;;;;;;;4668805;30;20537;-84
2022/07/04 03:54:56;;;;;;;17.80;11.65;;;21.90;99.90;;;;;;4668787;30;20034;-83
2022/07/04 03:57:22;;;;;;;15.75;10.00;;;21.90;99.90;;;;;;4652957;30;20044;-84
2022/07/04 03:59:48;;;;;;;15.68;9.57;;;21.90;99.90;;;;;;4668662;30;20105;-83
2022/07/04 04:02:14;;;;;;;17.35;10.77;;;22.00;99.90;;;;;;4668165;30;20096;-84
2022/07/04 04:07:25;;;;;;;17.15;10.63;;;22.00;99.90;;;;;;4668709;30;20116;-82
2022/07/04 04:09:57;;;;;;;16.80;10.65;;;22.00;99.90;;;;;;4668318;30;20064;-83
2022/07/04 04:12:23;;;;;;;17.10;10.98;;;20.30;99.90;;;;;;4668218;30;20666;-83
2022/07/04 04:14:48;;;;;;;18.95;10.60;;;22.00;99.90;;;;;;4668395;30;20634;-84
2022/07/04 04:17:20;;;;;;;14.23;9.40;;;22.00;99.90;;;;;;4652058;30;20042;-86
2022/07/04 04:19:46;;;;;;;18.95;11.63;;;22.00;99.90;;;;;;4651474;30;20070;-84
2022/07/04 04:22:15;;;;;;;19.73;11.60;;;22.00;99.90;;;;;;4651059;30;20073;-84
2022/07/04 04:24:50;;;;;;;16.55;10.57;;;21.90;99.90;;;;;;4649503;30;20649;-85
2022/07/04 04:27:37;;;;;;;15.10;10.40;;;21.90;99.90;;;;;;4649698;30;20039;-85
2022/07/04 04:30:03;;;;;;;20.77;13.60;;;22.10;99.90;;;;;;4649559;30;20669;-85
2022/07/04 04:32:29;;;;;;;19.58;12.77;;;;;;;;;;4651119;30;20710;-84
2022/07/04 04:35:02;;;;;;;19.60;11.85;;;22.10;99.90;;;;;;4651073;30;20044;-86
2022/07/04 04:37:39;;;;;;;18.55;12.82;;;22.20;99.90;;;;;;4649579;30;20399;-86
2022/07/04 04:40:06;;;;;;;16.88;10.10;;;22.40;99.90;;;;;;4650897;30;20312;-84
2022/07/04 04:42:37;;;;;;;17.02;10.50;;;22.30;99.90;;;;;;4649555;30;20342;-82
2022/07/04 04:45:04;;;;;;;20.42;11.40;;;21.70;99.90;;;;;;4649446;30;20037;-84
2022/07/04 04:47:30;;;;;;;19.92;11.18;;;22.40;99.90;;;;;;4649340;30;20097;-84
2022/07/04 04:49:55;;;;;;;14.82;9.65;;;22.40;99.90;;;;;;4651214;30;20034;-83
2022/07/04 04:52:21;;;;;;;16.92;11.23;;;22.50;99.90;;;;;;4651391;30;20054;-83
2022/07/04 04:54:47;;;;;;;24.00;11.63;;;22.60;99.90;;;;;;4650348;30;20031;-83
2022/07/04 04:57:13;;;;;;;15.82;10.27;;;22.60;99.90;;;;;;4649660;30;20039;-84
2022/07/04 04:59:38;;;;;;;15.57;8.75;;;22.70;99.90;;;;;;4650811;30;20102;-84
2022/07/04 05:02:07;;;;;;;14.32;9.68;;;22.70;99.90;;;;;;4650802;30;20527;-85
2022/07/04 05:04:33;;;;;;;14.90;10.25;;;22.70;99.90;;;;;;4650777;30;20431;-83
2022/07/04 05:06:59;;;;;;;16.08;9.73;;;22.70;99.90;;;;;;4648912;30;20034;-84
2022/07/04 05:09:25;;;;;;;16.60;10.45;;;22.80;99.90;;;;;;4650456;30;20061;-83
2022/07/04 05:11:51;;;;;;;15.45;10.38;;;22.80;99.90;;;;;;4650586;30;20133;-83
2022/07/04 05:14:17;;;;;;;15.68;10.80;;;22.90;99.90;;;;;;4648466;30;20034;-84
2022/07/04 05:16:43;;;;;;;21.15;13.43;;;23.00;99.90;;;;;;4648452;30;20225;-83
2022/07/04 05:19:09;;;;;;;17.15;11.48;;;23.00;99.90;;;;;;4663368;30;20058;-84
2022/07/04 05:21:34;;;;;;;17.27;11.13;;;23.30;99.90;;;;;;4667698;30;20041;-83
2022/07/04 05:24:00;;;;;;;20.17;13.27;;;23.10;99.90;;;;;;4667851;30;20408;-83
2022/07/04 05:26:26;;;;;;;25.13;15.15;;;23.10;99.90;;;;;;4667776;30;20058;-83
2022/07/04 05:28:52;;;;;;;20.65;13.30;;;;;;;;;;4667589;30;20034;-84
2022/07/04 05:31:18;;;;;;;22.30;12.95;;;23.20;99.90;;;;;;4667038;30;20141;-83
2022/07/04 05:33:44;;;;;;;20.42;12.63;;;23.30;99.90;;;;;;4667170;30;20587;-83
2022/07/04 05:36:10;;;;;;;21.08;12.75;;;23.30;99.90;;;;;;4667050;30;20045;-82
2022/07/04 05:38:35;;;;;;;20.00;13.00;;;23.40;99.90;;;;;;4667001;30;20077;-83
2022/07/04 05:41:02;;;;;;;18.02;13.35;;;23.50;99.90;;;;;;4667105;30;20579;-83
2022/07/04 05:43:27;;;;;;;18.42;12.60;;;23.50;99.90;;;;;;4665391;30;20072;-85
2022/07/04 05:45:53;;;;;;;19.75;12.98;;;23.60;99.90;;;;;;4667105;30;20307;-84
2022/07/04 05:48:21;;;;;;;16.50;11.70;;;23.60;99.90;;;;;;4651328;30;20705;-85
2022/07/04 05:50:47;;;;;;;17.55;10.73;;;23.60;99.90;;;;;;4666794;30;20048;-84
2022/07/04 05:53:13;;;;;;;14.38;11.07;;;23.70;99.90;;;;;;4666974;30;20026;-83
2022/07/04 05:55:38;;;;;;;18.17;11.13;;;23.90;99.90;;;;;;4665467;30;20038;-83
2022/07/04 05:58:04;;;;;;;16.77;11.43;;;23.90;99.90;;;;;;4666823;30;20511;-83
2022/07/04 06:00:30;;;;;;;18.25;12.38;;;24.00;99.90;;;;;;4666935;30;20030;-84
2022/07/04 06:02:56;;;;;;;19.90;13.80;;;24.10;99.90;;;;;;4651384;30;20030;-84
2022/07/04 06:05:21;;;;;;;20.48;14.48;;;24.20;99.90;;;;;;4651565;30;20031;-84
2022/07/04 06:07:48;;;;;;;27.13;14.68;;;24.30;99.90;;;;;;4667087;30;20105;-84
2022/07/04 06:10:14;;;;;;;21.92;15.27;;;24.30;99.90;;;;;;4666965;30;20320;-83
2022/07/04 06:12:40;;;;;;;19.98;13.70;;;24.30;99.90;;;;;;4666801;30;20034;-83
2022/07/04 06:15:09;;;;;;;24.48;15.10;;;24.40;99.90;;;;;;4667023;30;20247;-84
2022/07/04 06:17:35;;;;;;;28.02;16.10;;;24.50;99.90;;;;;;4666529;30;20493;-85
2022/07/04 06:20:03;;;;;;;21.60;14.48;;;24.60;99.90;;;;;;4651165;30;20034;-84
2022/07/04 06:22:42;;;;;;;21.48;15.95;;;24.60;99.90;;;;;;4650900;30;20128;-83
2022/07/04 06:25:16;;;;;;;26.38;17.38;;;24.60;99.90;;;;;;4667648;30;20499;-84
2022/07/04 06:27:43;;;;;;;25.83;15.40;;;24.50;99.90;;;;;;4670310;30;20037;-83
2022/07/04 06:30:10;;;;;;;23.10;15.70;;;24.50;99.90;;;;;;4669715;30;20140;-82
2022/07/04 06:32:56;;;;;;;24.23;16.98;;;24.50;99.90;;;;;;4654070;30;20523;-84
2022/07/04 06:38:10;;;;;;;24.65;14.68;;;24.50;99.90;;;;;;4669848;30;20151;-84
2022/07/04 06:40:37;;;;;;;23.42;16.55;;;24.50;99.90;;;;;;4654086;30;20038;-83
2022/07/04 06:43:03;;;;;;;23.67;15.60;;;24.50;99.90;;;;;;4670059;30;20034;-83
2022/07/04 06:45:30;;;;;;;23.35;16.13;;;24.60;99.90;;;;;;4669498;30;20105;-82
2022/07/04 06:47:56;;;;;;;26.38;15.88;;;26.70;99.90;;;;;;4669914;30;20646;-84
2022/07/04 06:50:22;;;;;;;22.58;13.93;;;25.00;99.90;;;;;;4653242;30;20042;-84
2022/07/04 06:52:57;;;;;;;21.15;14.55;;;25.10;99.90;;;;;;4653827;30;20034;-85
2022/07/04 06:55:35;;;;;;;21.98;16.20;;;25.20;99.90;;;;;;4667734;30;20068;-85
2022/07/04 06:58:02;;;;;;;21.65;14.48;;;25.30;99.90;;;;;;4653714;30;20042;-83
2022/07/04 07:00:30;;;;;;;24.83;15.45;;;25.40;99.90;;;;;;4669258;30;20511;-83
2022/07/04 07:03:00;;;;;;;20.83;13.52;;;25.30;99.90;;;;;;4669271;30;20030;-83
2022/07/04 07:05:27;;;;;;;22.60;15.32;;;25.40;99.90;;;;;;4669365;30;20034;-83
2022/07/04 07:07:53;;;;;;;21.85;15.20;;;25.50;99.90;;;;;;4653409;30;20386;-83
2022/07/04 07:10:20;;;;;;;27.67;14.82;;;25.50;99.90;;;;;;4669263;30;20788;-84
2022/07/04 07:12:45;;;;;;;23.80;14.55;;;25.60;99.90;;;;;;4669169;30;20038;-83
2022/07/04 07:15:13;;;;;;;22.33;15.55;;;25.70;99.90;;;;;;4669057;30;20056;-82
2022/07/04 07:17:42;;;;;;;23.70;14.95;;;25.70;99.90;;;;;;4667515;30;20192;-85
2022/07/04 07:20:08;;;;;;;20.17;14.30;;;25.70;99.90;;;;;;4669718;30;20237;-84
2022/07/04 07:22:34;;;;;;;20.17;13.88;;;25.70;99.90;;;;;;4653525;30;20072;-82
2022/07/04 07:25:02;;;;;;;19.08;13.23;;;25.80;99.90;;;;;;4669702;30;20025;-85
2022/07/04 07:27:34;;;;;;;25.15;13.93;;;25.90;99.90;;;;;;4669425;30;20041;-82
2022/07/04 07:29:59;;;;;;;21.05;13.73;;;26.40;99.90;;;;;;4669237;30;20355;-84
2022/07/04 07:32:25;;;;;;;21.73;13.20;;;26.10;99.90;;;;;;4653391;30;20077;-84
2022/07/04 07:34:51;;;;;;;19.75;13.75;;;26.30;99.90;;;;;;4654229;30;20121;-82
2022/07/04 07:37:26;;;;;;;22.25;14.82;;;25.50;99.90;;;;;;4654032;30;20221;-83
2022/07/04 07:39:52;;;;;;;21.52;13.80;;;26.30;99.90;;;;;;4668312;30;20221;-84
2022/07/04 07:42:18;;;;;;;20.98;12.77;;;26.50;99.90;;;;;;4669733;30;20030;-83
2022/07/04 07:44:46;;;;;;;22.95;15.02;;;26.50;99.90;;;;;;4669746;30;20538;-83
2022/07/04 07:47:15;;;;;;;18.98;12.55;;;26.50;99.90;;;;;;4654940;30;20038;-85
2022/07/04 07:49:42;;;;;;;21.75;14.35;;;26.70;99.60;;;;;;4669934;30;20247;-83
2022/07/04 07:52:08;;;;;;;24.73;14.50;;;26.80;99.30;;;;;;4669719;30;20107;-85
2022/07/04 07:54:37;;;;;;;21.48;14.15;;;26.80;99.60;;;;;;4670236;30;20082;-86
2022/07/04 07:57:03;;;;;;;24.38;14.68;;;26.90;99.60;;;;;;4668238;30;20415;-84
2022/07/04 07:59:29;;;;;;;20.77;13.20;;;27.00;99.40;;;;;;4669577;30;20109;-85
2022/07/04 08:01:54;;;;;;;25.42;14.52;;;26.90;99.60;;;;;;4669783;30;20278;-83
2022/07/04 08:04:35;;;;;;;19.70;13.65;;;27.10;98.90;;;;;;4674061;30;20045;-86
2022/07/04 08:07:11;;;;;;;20.58;15.32;;;27.40;98.90;;;;;;4671910;30;20064;-83
2022/07/04 08:09:37;;;;;;;22.58;14.65;;;27.50;98.50;;;;;;4671696;30;20099;-83
2022/07/04 08:12:05;;;;;;;18.27;12.80;;;27.60;98.50;;;;;;4670333;30;20514;-83
2022/07/04 08:14:31;;;;;;;18.15;12.60;;;27.70;98.30;;;;;;4655917;30;20619;-83
2022/07/04 08:16:58;;;;;;;21.25;15.07;;;27.90;98.10;;;;;;4656116;30;20061;-83
2022/07/04 08:19:24;;;;;;;20.02;13.82;;;27.70;98.10;;;;;;4672619;30;20515;-83
2022/07/04 08:21:51;;;;;;;19.05;13.07;;;27.90;98.30;;;;;;4673626;30;20492;-84
2022/07/04 08:24:20;;;;;;;19.10;14.05;;;28.00;98.00;;;;;;4672391;30;20272;-82
2022/07/04 08:26:51;;;;;;;17.85;13.18;;;28.20;97.60;;;;;;4670922;30;20038;-84
2022/07/04 08:29:18;;;;;;;23.08;14.40;;;28.30;97.60;;;;;;4655699;30;20339;-83
2022/07/04 08:31:47;;;;;;;21.08;14.93;;;28.40;97.40;;;;;;4673799;30;20370;-85
2022/07/04 08:34:13;;;;;;;20.65;13.70;;;28.30;97.20;;;;;;4671423;30;20496;-83
2022/07/04 08:36:39;;;;;;;23.70;14.82;;;28.50;97.10;;;;;;4672900;30;20263;-84
2022/07/04 08:39:05;;;;;;;20.08;13.95;;;28.70;96.90;;;;;;4673045;30;20326;-84
2022/07/04 08:41:38;;;;;;;23.05;13.95;;;28.70;96.80;;;;;;4672499;30;20088;-83
2022/07/04 08:44:06;;;;;;;22.48;14.23;;;30.60;96.90;;;;;;4670176;30;20117;-85
2022/07/04 08:46:35;;;;;;;19.48;14.10;;;28.80;95.80;;;;;;4668398;30;20598;-85
2022/07/04 08:49:05;;;;;;;18.80;13.80;;;28.70;96.10;;;;;;4667958;30;20259;-83
2022/07/04 08:51:55;;;;;;;19.42;14.15;;;28.80;95.90;;;;;;4668641;30;20119;-84
2022/07/04 08:59:55;;;;;;;19.38;13.93;;;29.30;95.30;;;;;;4669019;30;20044;-84
2022/07/04 09:02:22;;;;;;;18.70;12.95;;;29.40;94.80;;;;;;4668387;30;20117;-84
2022/07/04 09:04:49;;;;;;;25.40;14.88;;;29.60;94.40;;;;;;4653090;30;20034;-84
2022/07/04 09:07:17;;;;;;;21.70;14.00;;;29.60;94.70;;;;;;4668104;30;20113;-83
2022/07/04 09:09:44;;;;;;;19.90;13.35;;;29.70;93.80;;;;;;4652537;30;20243;-84
2022/07/04 09:12:12;;;;;;;20.00;13.88;;;29.70;93.90;;;;;;4652776;30;20033;-85
2022/07/04 09:14:39;;;;;;;18.65;12.50;;;30.00;93.60;;;;;;4666113;30;20034;-84
2022/07/04 09:17:06;;;;;;;17.20;11.45;;;30.10;92.80;;;;;;4667869;30;20385;-83
2022/07/04 09:19:33;;;;;;;21.42;13.85;;;30.10;92.60;;;;;;4653175;30;20204;-84
2022/07/04 09:22:09;;;;;;;19.90;12.75;;;30.30;92.00;;;;;;4667779;30;20232;-83
2022/07/04 09:24:49;;;;;;;18.45;13.05;;;30.40;92.20;;;;;;4651426;30;20545;-84
2022/07/04 09:27:39;;;;;;;17.23;12.70;;;30.50;92.30;;;;;;4651869;30;20072;-85
2022/07/04 09:30:06;;;;;;;18.90;12.77;;;30.70;91.90;;;;;;4652223;30;20041;-83
2022/07/04 09:32:41;;;;;;;16.40;11.95;;;30.90;91.50;;;;;;4652500;30;20038;-85
2022/07/04 09:35:22;;;;;;;18.90;11.98;;;31.00;91.30;;;;;;4652166;30;20061;-85
2022/07/04 09:37:53;;;;;;;19.30;13.10;;;31.00;90.90;;;;;;4668979;30;20034;-83
2022/07/04 09:41:24;;;;;;;20.25;12.52;;;31.10;91.10;;;;;;4668481;30;20069;-84
2022/07/04 09:43:23;;;;;;;20.77;13.20;;;31.20;90.60;;;;;;4671676;30;20271;-83
2022/07/04 09:46:03;;;;;;;16.85;11.77;;;31.20;90.50;;;;;;4671349;30;20512;-84
2022/07/04 09:48:49;;;;;;;19.50;13.55;;;31.30;90.60;;;;;;4657338;30;20567;-84
2022/07/04 09:51:14;;;;;;;17.13;12.52;;;31.50;90.30;;;;;;4668646;30;20100;-83
2022/07/04 09:53:40;;;;;;;17.63;12.05;;;31.60;90.30;;;;;;4667434;30;20372;-83
2022/07/04 09:56:06;;;;;;;21.10;12.82;;;31.70;88.80;;;;;;4667315;30;20423;-83
2022/07/04 09:58:32;;;;;;;18.77;12.05;;;31.70;88.60;;;;;;4667867;30;20363;-82
2022/07/04 10:01:00;;;;;;;20.40;11.80;;;30.30;87.20;;;;;;4669191;30;20220;-83
2022/07/04 10:03:28;;;;;;;16.48;11.40;;;31.90;86.80;;;;;;4670841;30;20304;-85
2022/07/04 10:06:18;;;;;;;17.88;12.50;;;32.00;86.60;;;;;;4670651;30;20096;-82
2022/07/04 10:08:44;;;;;;;18.92;12.30;;;32.10;85.20;;;;;;4670702;30;20064;-83
2022/07/04 10:11:11;;;;;;;21.70;12.18;;;32.60;85.10;;;;;;4655035;30;20034;-83
2022/07/04 10:13:38;;;;;;;15.13;10.95;;;32.60;83.10;;;;;;4670780;30;20041;-83
2022/07/04 10:16:04;;;;;;;16.90;11.32;;;32.70;82.50;;;;;;4670646;30;20557;-85
2022/07/04 10:18:30;;;;;;;16.90;11.75;;;32.90;82.60;;;;;;4656220;30;20184;-83
2022/07/04 10:21:02;;;;;;;18.40;11.85;;;33.00;81.30;;;;;;4672687;30;20034;-85
2022/07/04 10:23:31;;;;;;;18.17;12.68;;;33.10;80.40;;;;;;4671929;30;20030;-83
2022/07/04 10:25:58;;;;;;;16.67;11.52;;;32.70;81.10;;;;;;4656595;30;20042;-85
2022/07/04 10:28:32;;;;;;;15.73;11.25;;;32.70;81.60;;;;;;4656547;30;20038;-85
2022/07/04 10:30:59;;;;;;;17.98;12.32;;;33.40;81.90;;;;;;4655900;30;20112;-82
2022/07/04 10:33:27;;;;;;;13.73;9.65;;;32.00;81.60;;;;;;4671777;30;20046;-83
2022/07/04 10:36:01;;;;;;;19.48;11.13;;;31.90;82.10;;;;;;4671095;30;20511;-83
2022/07/04 10:38:34;;;;;;;14.30;9.82;;;31.60;83.60;;;;;;4654894;30;20239;-86
2022/07/04 10:41:04;;;;;;;23.60;10.88;;;31.40;85.80;;;;;;4671166;30;20507;-85
2022/07/04 10:44:01;;;;;;;20.00;10.68;;;30.90;93.10;;;;;;4675559;30;20523;-87
2022/07/04 10:46:31;;;;;;;13.38;8.85;;;29.60;95.70;;;;;;4657667;30;20163;-86
2022/07/04 10:49:15;;;;;;;16.58;10.30;;;28.40;96.40;;;;;;4672409;30;20096;-87
2022/07/04 10:51:48;;;;;;;14.77;9.40;;;27.50;99.80;;;;;;4671030;30;20145;-86
2022/07/04 10:54:34;;;;;;;17.33;9.90;;;27.10;99.90;;;;;;4656198;30;20097;-85
2022/07/04 10:57:20;;;;;;;13.60;9.13;;;26.30;99.90;;;;;;4655910;30;20038;-85
2022/07/04 10:59:59;;;;;;;15.35;9.32;;;26.20;99.90;;;;;;4656452;30;20041;-85
2022/07/04 11:02:30;;;;;;;15.80;8.95;;;25.80;99.90;;;;;;4676769;25;20228;-88
2022/07/04 11:05:09;;;;;;;13.93;8.30;;;25.40;99.90;;;;;;4670781;30;20030;-87
2022/07/04 11:07:35;;;;;;;13.65;6.80;;;25.20;99.90;;;;;;4654494;30;20034;-85
2022/07/04 11:10:16;;;;;;;11.80;5.80;;;24.50;99.90;;;;;;4649913;30;20614;-87
2022/07/04 11:13:06;;;;;;;10.15;6.00;;;24.00;99.90;;;;;;4649037;30;20156;-86
2022/07/04 11:15:35;;;;;;;12.20;6.30;;;24.00;99.90;;;;;;4635677;30;20035;-85
2022/07/04 11:18:08;;;;;;;10.13;6.00;;;23.40;99.90;;;;;;4649727;30;20539;-86
2022/07/04 11:20:56;;;;;;;12.35;7.25;;;23.20;99.90;;;;;;4635508;30;20138;-86
2022/07/04 11:23:21;;;;;;;11.30;6.97;;;23.10;99.90;;;;;;4649169;30;20097;-86
2022/07/04 11:25:50;;;;;;;14.95;7.53;;;22.90;99.90;;;;;;4634906;30;20050;-84
2022/07/04 11:28:32;;;;;;;11.55;7.25;;;22.90;99.90;;;;;;4649424;30;20572;-84
2022/07/04 11:31:02;;;;;;;14.05;8.38;;;23.30;99.90;;;;;;4634784;30;20047;-85
2022/07/04 11:33:35;;;;;;;13.52;8.93;;;22.70;99.90;;;;;;4634842;30;20296;-85
2022/07/04 11:36:04;;;;;;;20.17;11.45;;;22.70;99.90;;;;;;4634201;30;20137;-84
2022/07/04 11:38:47;;;;;;;17.92;9.98;;;22.80;99.90;;;;;;4634857;30;20499;-84
2022/07/04 11:46:42;;;;;;;16.25;9.40;;;22.70;99.90;;;;;;4669463;30;20341;-85
2022/07/04 11:49:10;;;;;;;75.40;29.10;;;22.70;99.90;;;;;;4653836;30;20117;-83
2022/07/04 11:51:46;;;;;;;23.05;12.50;;;22.80;99.90;;;;;;4653552;30;20073;-84
2022/07/04 11:54:12;;;;;;;19.23;9.85;;;22.80;99.90;;;;;;4653386;30;20113;-84
2022/07/04 11:56:43;;;;;;;15.43;8.80;;;22.80;99.90;;;;;;4653291;30;20473;-84
2022/07/04 11:59:14;;;;;;;14.52;9.85;;;22.80;99.90;;;;;;4654053;30;20424;-84
2022/07/04 12:01:53;;;;;;;24.35;13.45;;;22.90;99.90;;;;;;4653182;30;20683;-83
2022/07/04 12:04:22;;;;;;;16.95;10.60;;;23.50;99.90;;;;;;4653759;30;20052;-85
2022/07/04 12:06:48;;;;;;;16.70;9.48;;;22.80;99.90;;;;;;4669007;30;20037;-83
2022/07/04 12:09:17;;;;;;;16.60;10.20;;;22.80;99.90;;;;;;4653111;30;20954;-84
2022/07/04 12:11:58;;;;;;;15.50;9.88;;;22.80;99.90;;;;;;4668769;30;20042;-85
2022/07/04 12:14:44;;;;;;;15.43;9.07;;;22.70;99.90;;;;;;4653277;30;20122;-84
2022/07/04 12:17:18;;;;;;;16.58;9.30;;;22.70;99.90;;;;;;4651134;30;20042;-84
2022/07/04 12:19:52;;;;;;;19.67;10.65;;;22.70;99.90;;;;;;4653750;30;20132;-84
2022/07/04 12:22:40;;;;;;;15.75;9.32;;;22.80;99.90;;;;;;4653669;30;20091;-83
2022/07/04 12:25:07;;;;;;;16.70;9.73;;;25.70;99.90;;;;;;4668123;30;20125;-85
2022/07/04 12:27:34;;;;;;;15.48;10.02;;;23.00;99.90;;;;;;4653612;30;20026;-85
2022/07/04 12:30:03;;;;;;;16.30;10.27;;;23.10;99.90;;;;;;4653201;30;20462;-83
2022/07/04 12:32:52;;;;;;;18.38;10.80;;;23.10;99.90;;;;;;4669324;30;20492;-85
2022/07/04 12:35:42;;;;;;;18.52;10.30;;;23.40;99.90;;;;;;4653165;30;20045;-85
2022/07/04 12:38:41;;;;;;;18.23;11.48;;;23.80;99.90;;;;;;4669464;30;20423;-86
2022/07/04 12:41:11;;;;;;;18.70;11.48;;;23.30;99.90;;;;;;4582074;30;20355;-85
2022/07/04 12:43:51;;;;;;;16.05;10.27;;;23.50;99.90;;;;;;4581748;31;20279;-85
2022/07/04 12:46:33;;;;;;;16.55;10.77;;;23.60;99.90;;;;;;4567755;31;20128;-86
2022/07/04 12:49:06;;;;;;;18.00;11.25;;;23.60;99.90;;;;;;4581285;31;20063;-85
2022/07/04 12:51:34;;;;;;;17.73;10.80;;;23.70;99.90;;;;;;4567586;31;20060;-84
2022/07/04 12:54:12;;;;;;;17.27;10.85;;;23.70;99.90;;;;;;4567777;31;20052;-83
2022/07/04 12:56:47;;;;;;;17.80;11.60;;;24.50;99.90;;;;;;4649827;25;20061;-86
2022/07/04 12:59:19;;;;;;;15.25;10.18;;;24.30;99.90;;;;;;4670653;30;20068;-84
2022/07/04 13:01:46;;;;;;;18.13;11.23;;;24.30;99.90;;;;;;4685872;30;20033;-85
2022/07/04 13:04:13;;;;;;;17.95;11.13;;;24.70;99.90;;;;;;4685945;30;20033;-85
2022/07/04 13:06:40;;;;;;;18.20;12.05;;;24.80;99.90;;;;;;4685376;30;20026;-83